Time;durP1;ratioP1;P1;durP2;ratioP2;P2;SDS_P1;SDS_P2;PMS_P1;PMS_P2;Temp;Humidity;BMP_temperature;BMP_pressure;BME280_temperature;BME280_humidity;BME280_pressure;Samples;Min_cycle;Max_cycle;Signal;HPM_P1;HPM_P2
2021/09/11 00:01:36;;;;;;;39.90;16.70;;;;;;;;;;5034161;28;20768;-82
2021/09/11 00:04:06;;;;;;;53.22;20.30;;;;;;;;;;5032043;28;20057;-82
2021/09/11 00:06:33;;;;;;;41.00;17.02;;;;;;;;;;5034092;28;20073;-81
2021/09/11 00:09:00;;;;;;;52.67;17.83;;;;;;;;;;5044796;28;20251;-81
2021/09/11 00:11:27;;;;;;;56.85;18.55;;;;;;;;;;5054178;28;20079;-81
2021/09/11 00:13:54;;;;;;;43.45;16.08;;;;;;;;;;5032131;28;20056;-78
2021/09/11 00:16:21;;;;;;;36.30;15.45;;;;;;;;;;5029022;28;20055;-79
2021/09/11 00:18:48;;;;;;;38.10;15.65;;;;;;;;;;5030562;28;20060;-78
2021/09/11 00:21:16;;;;;;;53.03;16.42;;;;;;;;;;5029823;28;20083;-78
2021/09/11 00:23:43;;;;;;;36.55;14.07;;;;;;;;;;5028261;28;20792;-78
2021/09/11 00:26:10;;;;;;;39.22;15.18;;;;;;;;;;5027462;28;20556;-78
2021/09/11 00:28:37;;;;;;;41.28;15.80;;;;;;;;;;5029241;28;20092;-78
2021/09/11 00:31:04;;;;;;;46.95;15.23;;;;;;;;;;5029222;28;20144;-78
2021/09/11 00:33:31;;;;;;;43.22;15.52;;;;;;;;;;5029330;28;20092;-78
2021/09/11 00:35:59;;;;;;;45.28;16.38;;;;;;;;;;5014797;28;20153;-78
2021/09/11 00:38:26;;;;;;;47.47;16.45;;;;;;;;;;5028921;28;20565;-77
2021/09/11 00:40:53;;;;;;;35.45;15.70;;;;;;;;;;5029200;28;20136;-78
2021/09/11 00:43:21;;;;;;;36.17;15.73;;;;;;;;;;5010391;28;20089;-78
2021/09/11 00:45:49;;;;;;;42.72;16.23;;;;;;;;;;5022836;28;20051;-78
2021/09/11 00:48:16;;;;;;;43.78;15.07;;;;;;;;;;5032186;28;20409;-78
2021/09/11 00:50:44;;;;;;;40.35;15.48;;;;;;;;;;5032546;28;20527;-78
2021/09/11 00:53:12;;;;;;;39.65;15.32;;;;;;;;;;5028263;28;20156;-78
2021/09/11 00:55:39;;;;;;;51.60;14.43;;;;;;;;;;5029168;28;20089;-78
2021/09/11 00:58:06;;;;;;;41.92;16.48;;;;;;;;;;5027784;28;20819;-78
2021/09/11 01:00:33;;;;;;;41.50;16.83;;;;;;;;;;5027849;28;20089;-78
2021/09/11 01:03:00;;;;;;;39.05;15.18;;;;;;;;;;5047236;28;20056;-78
2021/09/11 01:05:28;;;;;;;44.92;15.25;;;;;;;;;;5048515;28;20049;-78
2021/09/11 01:07:55;;;;;;;40.13;15.52;;;;;;;;;;5046820;28;20053;-78
2021/09/11 01:10:22;;;;;;;55.10;16.63;;;;;;;;;;5028958;28;20115;-78
2021/09/11 01:12:49;;;;;;;60.88;16.92;;;;;;;;;;5023388;28;20066;-78
2021/09/11 01:15:17;;;;;;;54.22;17.85;;;;;;;;;;5024265;28;20120;-78
2021/09/11 01:17:46;;;;;;;68.10;18.35;;;;;;;;;;5027681;28;20132;-78
2021/09/11 01:20:13;;;;;;;69.95;17.95;;;;;;;;;;5036591;28;20069;-78
2021/09/11 01:22:41;;;;;;;51.95;17.33;;;;;;;;;;5031814;28;20798;-78
2021/09/11 01:25:10;;;;;;;67.90;18.98;;;;;;;;;;5018072;28;20137;-78
2021/09/11 01:27:37;;;;;;;73.40;19.38;;;;;;;;;;5010176;28;20056;-78
2021/09/11 01:30:08;;;;;;;62.47;18.58;;;;;;;;;;5009632;28;20498;-78
2021/09/11 01:32:36;;;;;;;57.20;18.73;;;;;;;;;;5007075;28;20836;-78
2021/09/11 01:35:03;;;;;;;61.05;20.38;;;;;;;;;;5014694;28;20085;-78
2021/09/11 01:37:30;;;;;;;65.13;20.63;;;;;;;;;;5011130;28;20432;-78
2021/09/11 01:39:58;;;;;;;64.75;19.50;;;;;;;;;;5027132;28;20132;-78
2021/09/11 01:42:27;;;;;;;60.80;19.00;;;;;;;;;;5027102;28;20140;-78
2021/09/11 01:44:58;;;;;;;50.00;18.30;;;;;;;;;;5016598;28;20050;-78
2021/09/11 01:47:25;;;;;;;54.88;18.27;;;;;;;;;;5014486;28;20084;-78
2021/09/11 01:53:21;;;;;;;62.38;19.60;;;;;;;;;;5031528;28;20035;-78
2021/09/11 01:55:48;;;;;;;93.25;21.63;;;;;;;;;;5042731;28;20132;-78
2021/09/11 01:58:15;;;;;;;70.22;21.08;;;;;;;;;;5009430;28;20046;-78
2021/09/11 02:00:44;;;;;;;66.13;20.60;;;;;;;;;;5017813;28;20142;-78
2021/09/11 02:03:12;;;;;;;85.97;20.83;;;;;;;;;;5020033;28;20462;-78
2021/09/11 02:05:39;;;;;;;70.60;21.35;;;;;;;;;;5012784;28;20056;-78
2021/09/11 02:08:07;;;;;;;85.88;21.45;;;;;;;;;;5042904;28;20876;-78
2021/09/11 02:10:34;;;;;;;65.78;21.17;;;;;;;;;;5027916;28;20118;-78
2021/09/11 02:13:02;;;;;;;80.78;21.70;;;;;;;;;;5033263;28;20079;-79
2021/09/11 02:15:29;;;;;;;62.92;19.95;;;;;;;;;;5016557;28;20846;-79
2021/09/11 02:17:56;;;;;;;77.75;21.67;;;;;;;;;;5022975;28;20775;-79
2021/09/11 02:20:25;;;;;;;75.80;20.95;;;;;;;;;;5041337;28;20132;-80
2021/09/11 02:22:52;;;;;;;73.70;20.05;;;;;;;;;;5045213;28;20124;-80
2021/09/11 02:25:20;;;;;;;120.57;21.58;;;;;;;;;;5042344;28;20053;-79
2021/09/11 02:27:47;;;;;;;69.90;19.00;;;;;;;;;;5038555;28;20140;-79
2021/09/11 02:30:14;;;;;;;71.43;20.10;;;;;;;;;;5028504;28;20119;-79
2021/09/11 02:32:42;;;;;;;80.13;20.88;;;;;;;;;;5028374;28;20497;-79
2021/09/11 02:35:09;;;;;;;64.63;19.90;;;;;;;;;;5032268;28;20139;-78
2021/09/11 02:37:38;;;;;;;81.25;20.55;;;;;;;;;;5046616;28;20141;-78
2021/09/11 02:40:06;;;;;;;90.15;20.85;;;;;;;;;;5047767;28;20148;-78
2021/09/11 02:42:33;;;;;;;86.22;20.48;;;;;;;;;;5045116;28;20168;-79
2021/09/11 02:45:00;;;;;;;74.43;21.17;;;;;;;;;;5027287;28;20580;-78
2021/09/11 02:47:27;;;;;;;81.53;21.25;;;;;;;;;;5026978;28;20578;-78
2021/09/11 02:49:54;;;;;;;73.78;21.15;;;;;;;;;;5032724;28;20500;-79
2021/09/11 02:52:21;;;;;;;92.78;22.23;;;;;;;;;;5042927;28;20132;-79
2021/09/11 02:54:48;;;;;;;72.55;21.08;;;;;;;;;;5038960;28;20458;-79
2021/09/11 02:57:16;;;;;;;93.35;21.77;;;;;;;;;;5047124;28;20059;-78
2021/09/11 02:59:43;;;;;;;97.70;22.90;;;;;;;;;;5018085;28;20081;-78
2021/09/11 03:02:10;;;;;;;74.30;21.10;;;;;;;;;;5016992;28;20937;-78
2021/09/11 03:04:37;;;;;;;88.18;22.65;;;;;;;;;;5024907;28;20049;-78
2021/09/11 03:07:05;;;;;;;91.90;21.83;;;;;;;;;;5036046;28;20127;-79
2021/09/11 03:09:32;;;;;;;67.43;20.98;;;;;;;;;;5046339;28;20712;-77
2021/09/11 03:11:59;;;;;;;78.38;22.05;;;;;;;;;;5044319;28;20729;-78
2021/09/11 03:14:26;;;;;;;78.80;21.73;;;;;;;;;;5035072;28;20084;-78
2021/09/11 03:16:53;;;;;;;90.22;23.77;;;;;;;;;;5026007;28;20077;-78
2021/09/11 03:19:20;;;;;;;103.07;23.13;;;;;;;;;;5031153;28;20506;-78
2021/09/11 03:21:47;;;;;;;71.82;22.35;;;;;;;;;;5014167;28;20133;-77
2021/09/11 03:24:14;;;;;;;93.20;24.33;;;;;;;;;;5038918;28;20080;-77
2021/09/11 03:26:42;;;;;;;65.68;22.10;;;;;;;;;;5033602;28;20132;-77
2021/09/11 03:29:09;;;;;;;75.45;20.95;;;;;;;;;;5024726;28;20077;-78
2021/09/11 03:31:36;;;;;;;66.57;21.10;;;;;;;;;;5029572;28;20164;-77
2021/09/11 03:34:03;;;;;;;80.85;21.27;;;;;;;;;;5025642;28;20502;-78
2021/09/11 03:36:30;;;;;;;69.65;22.38;;;;;;;;;;5019425;28;20097;-77
2021/09/11 03:38:57;;;;;;;61.65;21.92;;;;;;;;;;5029135;28;20100;-79
2021/09/11 03:41:24;;;;;;;86.15;22.65;;;;;;;;;;5022225;28;20053;-77
2021/09/11 03:43:52;;;;;;;96.80;24.95;;;;;;;;;;5009537;28;20084;-77
2021/09/11 03:46:19;;;;;;;148.55;25.80;;;;;;;;;;5021966;28;20453;-77
2021/09/11 03:48:46;;;;;;;98.00;23.65;;;;;;;;;;5029452;28;20409;-77
2021/09/11 03:51:13;;;;;;;110.85;24.90;;;;;;;;;;5029049;28;20081;-77
2021/09/11 03:53:40;;;;;;;90.00;23.77;;;;;;;;;;5047428;28;20202;-78
2021/09/11 03:56:07;;;;;;;88.63;24.15;;;;;;;;;;5048814;28;20139;-77
2021/09/11 03:58:35;;;;;;;124.00;26.35;;;;;;;;;;5047159;28;20140;-78
2021/09/11 04:01:02;;;;;;;95.55;24.27;;;;;;;;;;5040713;28;20072;-78
2021/09/11 04:03:31;;;;;;;90.70;24.88;;;;;;;;;;5032371;28;20062;-77
2021/09/11 04:06:00;;;;;;;82.88;24.60;;;;;;;;;;5008787;28;20519;-77
2021/09/11 04:08:30;;;;;;;107.13;26.20;;;;;;;;;;5007835;28;20153;-77
2021/09/11 04:10:58;;;;;;;94.90;26.40;;;;;;;;;;5026247;28;20145;-77
2021/09/11 04:13:25;;;;;;;147.52;28.13;;;;;;;;;;5027565;28;20156;-77
2021/09/11 04:15:52;;;;;;;109.68;27.60;;;;;;;;;;5030817;28;20779;-77
2021/09/11 04:18:19;;;;;;;108.78;26.58;;;;;;;;;;5028347;28;20053;-77
2021/09/11 04:20:46;;;;;;;142.98;27.75;;;;;;;;;;5028028;28;20080;-77
2021/09/11 04:23:14;;;;;;;161.25;30.38;;;;;;;;;;5027696;28;20052;-77
2021/09/11 04:25:41;;;;;;;109.63;29.48;;;;;;;;;;5026656;28;20050;-77
2021/09/11 04:28:08;;;;;;;97.65;26.08;;;;;;;;;;5028564;28;20078;-77
2021/09/11 04:30:35;;;;;;;187.68;32.67;;;;;;;;;;5043822;28;20091;-77
2021/09/11 04:33:03;;;;;;;112.10;27.60;;;;;;;;;;5027781;28;20096;-77
2021/09/11 04:35:30;;;;;;;90.70;27.88;;;;;;;;;;5020119;28;20089;-77
2021/09/11 04:37:58;;;;;;;118.32;28.95;;;;;;;;;;5010916;28;20877;-77
2021/09/11 04:40:25;;;;;;;99.45;27.52;;;;;;;;;;5041119;28;20060;-77
2021/09/11 04:42:54;;;;;;;108.25;29.00;;;;;;;;;;5023731;28;20509;-77
2021/09/11 04:45:23;;;;;;;103.75;27.95;;;;;;;;;;5009216;28;20487;-77
2021/09/11 04:47:50;;;;;;;140.10;29.45;;;;;;;;;;5019195;28;20783;-77
2021/09/11 04:50:18;;;;;;;108.65;27.65;;;;;;;;;;5008266;28;20176;-77
2021/09/11 04:52:45;;;;;;;99.07;29.13;;;;;;;;;;5031469;28;20120;-77
2021/09/11 04:55:14;;;;;;;134.82;29.92;;;;;;;;;;5020704;28;20056;-77
2021/09/11 04:57:41;;;;;;;104.03;28.55;;;;;;;;;;5031191;28;20767;-77
2021/09/11 05:00:09;;;;;;;162.40;31.10;;;;;;;;;;5027638;28;20049;-77
2021/09/11 05:02:36;;;;;;;181.02;34.78;;;;;;;;;;5027963;28;20131;-77
2021/09/11 05:05:04;;;;;;;111.30;28.52;;;;;;;;;;5027428;28;20560;-77
2021/09/11 05:07:31;;;;;;;100.32;30.05;;;;;;;;;;5026340;28;20128;-77
2021/09/11 05:09:58;;;;;;;163.68;34.53;;;;;;;;;;5024887;28;20111;-78
2021/09/11 05:12:25;;;;;;;161.77;33.75;;;;;;;;;;5019679;28;20795;-77
2021/09/11 05:14:52;;;;;;;165.95;34.42;;;;;;;;;;5015578;28;20053;-78
2021/09/11 05:17:19;;;;;;;160.70;33.75;;;;;;;;;;5027663;28;20061;-78
2021/09/11 05:19:47;;;;;;;173.10;33.88;;;;;;;;;;5026585;28;20124;-78
2021/09/11 05:22:14;;;;;;;220.32;35.70;;;;;;;;;;5027256;28;20068;-78
2021/09/11 05:24:42;;;;;;;139.68;33.50;;;;;;;;;;5025553;28;20057;-78
2021/09/11 05:27:10;;;;;;;177.98;34.65;;;;;;;;;;5025852;28;20103;-78
2021/09/11 05:29:37;;;;;;;159.10;33.95;;;;;;;;;;5018802;28;20197;-77
2021/09/11 05:32:04;;;;;;;188.73;35.80;;;;;;;;;;5014826;28;20048;-78
2021/09/11 05:34:31;;;;;;;155.32;33.88;;;;;;;;;;5034949;28;20124;-77
2021/09/11 05:36:59;;;;;;;140.90;33.15;;;;;;;;;;5032355;28;20133;-77
2021/09/11 05:39:26;;;;;;;122.70;32.20;;;;;;;;;;5027059;28;20129;-77
2021/09/11 05:41:57;;;;;;;181.45;34.55;;;;;;;;;;5026378;28;20490;-78
2021/09/11 05:44:24;;;;;;;155.15;34.53;;;;;;;;;;5016072;28;20103;-77
2021/09/11 05:46:51;;;;;;;151.75;34.25;;;;;;;;;;5025123;28;20160;-77
2021/09/11 05:49:18;;;;;;;117.03;30.40;;;;;;;;;;5025177;28;20057;-77
2021/09/11 05:51:45;;;;;;;144.93;32.45;;;;;;;;;;5019414;28;20138;-77
2021/09/11 05:54:12;;;;;;;123.68;31.88;;;;;;;;;;5025274;28;20503;-77
2021/09/11 05:56:39;;;;;;;161.75;33.88;;;;;;;;;;5018416;28;20051;-77
2021/09/11 05:59:07;;;;;;;95.85;29.83;;;;;;;;;;5010758;28;20450;-78
2021/09/11 06:01:34;;;;;;;96.35;30.40;;;;;;;;;;5018135;28;20200;-78
2021/09/11 06:04:02;;;;;;;108.53;28.05;;;;;;;;;;5023113;28;20857;-77
2021/09/11 06:06:29;;;;;;;82.85;26.83;;;;;;;;;;5020012;28;20085;-78
2021/09/11 06:08:56;;;;;;;101.93;28.67;;;;;;;;;;5006930;28;20168;-79
2021/09/11 06:11:23;;;;;;;84.22;26.10;;;;;;;;;;5013442;28;20402;-78
2021/09/11 06:13:50;;;;;;;128.75;31.45;;;;;;;;;;5008502;28;20064;-78
2021/09/11 06:16:17;;;;;;;94.85;29.13;;;;;;;;;;5019701;28;20775;-77
2021/09/11 06:18:46;;;;;;;70.13;24.25;;;;;;;;;;5027059;28;20091;-80
2021/09/11 06:21:13;;;;;;;78.57;25.27;;;;;;;;;;5023804;28;20085;-79
2021/09/11 06:23:40;;;;;;;73.28;24.85;;;;;;;;;;5031513;28;20077;-78
2021/09/11 06:26:07;;;;;;;70.88;26.02;;;;;;;;;;5045222;28;20156;-80
2021/09/11 06:28:34;;;;;;;73.45;25.73;;;;;;;;;;5019899;28;20252;-78
2021/09/11 06:31:01;;;;;;;73.93;25.15;;;;;;;;;;5005635;28;20077;-78
2021/09/11 06:33:28;;;;;;;79.97;26.83;;;;;;;;;;5015152;28;20037;-81
2021/09/11 06:35:56;;;;;;;68.70;25.60;;;;;;;;;;5030040;28;20434;-82
2021/09/11 06:38:23;;;;;;;75.82;25.67;;;;;;;;;;5030936;28;20057;-79
2021/09/11 06:40:50;;;;;;;74.88;26.05;;;;;;;;;;5025334;28;20132;-83
2021/09/11 06:43:18;;;;;;;72.60;25.75;;;;;;;;;;5022613;28;20636;-80
2021/09/11 06:45:45;;;;;;;92.53;29.30;;;;;;;;;;5014754;28;20052;-79
2021/09/11 06:48:12;;;;;;;79.55;26.20;;;;;;;;;;5020697;28;20053;-79
2021/09/11 06:50:40;;;;;;;85.85;28.25;;;;;;;;;;5025892;28;20124;-79
2021/09/11 06:53:07;;;;;;;81.13;28.73;;;;;;;;;;5030124;28;20073;-79
2021/09/11 06:55:34;;;;;;;77.40;26.88;;;;;;;;;;5018781;28;20168;-79
2021/09/11 06:58:01;;;;;;;77.93;28.65;;;;;;;;;;5016734;28;20133;-79
2021/09/11 07:00:28;;;;;;;58.28;25.55;;;;;;;;;;5016313;28;20128;-78
2021/09/11 07:02:56;;;;;;;77.80;25.98;;;;;;;;;;5019677;28;20054;-79
2021/09/11 07:05:24;;;;;;;76.07;26.17;;;;;;;;;;5018869;28;20045;-79
2021/09/11 07:07:51;;;;;;;72.32;26.50;;;;;;;;;;5029722;28;20103;-79
2021/09/11 07:10:19;;;;;;;81.88;27.17;;;;;;;;;;5020306;28;20076;-79
2021/09/11 07:12:46;;;;;;;76.55;25.88;;;;;;;;;;5018816;28;20623;-79
2021/09/11 07:15:16;;;;;;;65.15;26.70;;;;;;;;;;5015111;28;20050;-79
2021/09/11 07:17:43;;;;;;;70.15;26.33;;;;;;;;;;5013740;28;20165;-79
2021/09/11 07:20:11;;;;;;;75.95;27.15;;;;;;;;;;5026156;28;20136;-79
2021/09/11 07:22:38;;;;;;;77.60;26.30;;;;;;;;;;5024285;28;20164;-79
2021/09/11 07:25:05;;;;;;;70.30;27.58;;;;;;;;;;5032048;28;20136;-79
2021/09/11 07:27:32;;;;;;;70.53;25.90;;;;;;;;;;5016899;28;20967;-79
2021/09/11 07:29:59;;;;;;;68.72;27.20;;;;;;;;;;5011967;28;20583;-79
2021/09/11 07:32:27;;;;;;;66.93;27.88;;;;;;;;;;5007378;28;20089;-80
2021/09/11 07:34:54;;;;;;;64.95;25.45;;;;;;;;;;5009520;28;20085;-80
2021/09/11 07:37:22;;;;;;;61.47;24.85;;;;;;;;;;5008504;28;20407;-80
2021/09/11 07:39:49;;;;;;;58.03;24.17;;;;;;;;;;5008058;28;20092;-80
2021/09/11 07:42:17;;;;;;;58.13;25.02;;;;;;;;;;5008054;28;20067;-80
2021/09/11 07:44:44;;;;;;;55.22;24.00;;;;;;;;;;5021513;28;20417;-79
2021/09/11 07:47:11;;;;;;;64.30;24.60;;;;;;;;;;5025120;28;20116;-79
2021/09/11 07:49:39;;;;;;;60.40;24.92;;;;;;;;;;5024674;28;20056;-79
2021/09/11 07:52:06;;;;;;;63.10;25.50;;;;;;;;;;5024955;28;20053;-79
2021/09/11 07:54:33;;;;;;;49.83;22.55;;;;;;;;;;5031062;28;20129;-79
2021/09/11 07:57:01;;;;;;;50.50;23.88;;;;;;;;;;5045419;28;20057;-79
2021/09/11 07:59:28;;;;;;;58.17;24.25;;;;;;;;;;5045300;28;20446;-79
2021/09/11 08:01:55;;;;;;;57.25;23.95;;;;;;;;;;5046186;28;20131;-79
2021/09/11 08:04:23;;;;;;;52.78;23.95;;;;;;;;;;5034225;28;20064;-79
2021/09/11 08:06:50;;;;;;;59.63;24.15;;;;;;;;;;5027010;28;20144;-79
2021/09/11 08:09:17;;;;;;;59.42;25.90;;;;;;;;;;5026656;28;20413;-79
2021/09/11 08:11:44;;;;;;;54.15;23.27;;;;;;;;;;5029996;28;20140;-79
2021/09/11 08:14:11;;;;;;;53.50;24.40;;;;;;;;;;5021729;28;20073;-79
2021/09/11 08:16:38;;;;;;;64.68;25.00;;;;;;;;;;5010550;28;20084;-79
2021/09/11 08:19:08;;;;;;;57.22;23.58;;;;;;;;;;5032022;28;20076;-79
2021/09/11 08:21:36;;;;;;;65.80;26.42;;;;;;;;;;5029857;28;20482;-78
2021/09/11 08:24:03;;;;;;;60.67;23.70;;;;;;;;;;5021646;28;20085;-79
2021/09/11 08:26:30;;;;;;;54.75;23.25;;;;;;;;;;5008467;28;20053;-78
2021/09/11 08:28:57;;;;;;;56.63;24.40;;;;;;;;;;5009962;28;20144;-79
2021/09/11 08:31:27;;;;;;;54.42;23.77;;;;;;;;;;5010438;28;20054;-79
2021/09/11 08:33:54;;;;;;;54.15;23.67;;;;;;;;;;5010192;28;20052;-78
2021/09/11 08:36:22;;;;;;;55.85;24.42;;;;;;;;;;5010005;28;20515;-78
2021/09/11 08:38:49;;;;;;;53.75;24.35;;;;;;;;;;5008476;28;20635;-78
2021/09/11 08:41:16;;;;;;;53.15;23.65;;;;;;;;;;5008624;28;20089;-78
2021/09/11 08:43:44;;;;;;;45.67;22.83;;;;;;;;;;5009386;28;20054;-78
2021/09/11 08:46:11;;;;;;;49.75;22.48;;;;;;;;;;5008823;28;20141;-78
2021/09/11 08:48:38;;;;;;;48.60;23.10;;;;;;;;;;5009780;28;20461;-78
2021/09/11 08:51:06;;;;;;;47.10;22.40;;;;;;;;;;5008165;28;20139;-78
2021/09/11 08:53:36;;;;;;;46.47;22.95;;;;;;;;;;5009832;28;20050;-78
2021/09/11 08:56:03;;;;;;;45.13;20.98;;;;;;;;;;5045778;28;20179;-78
2021/09/11 08:58:30;;;;;;;47.95;22.42;;;;;;;;;;5047235;28;20473;-78
2021/09/11 09:00:59;;;;;;;44.25;22.88;;;;;;;;;;5048499;28;20498;-78
2021/09/11 09:03:26;;;;;;;53.08;23.17;;;;;;;;;;5045475;28;20080;-78
2021/09/11 09:05:54;;;;;;;43.97;22.73;;;;;;;;;;5023761;28;20049;-78
2021/09/11 09:08:28;;;;;;;44.10;22.98;;;;;;;;;;5028886;28;20176;-78
2021/09/11 09:10:56;;;;;;;43.58;22.63;;;;;;;;;;5029689;28;20088;-78
2021/09/11 09:13:23;;;;;;;45.30;22.45;;;;;;;;;;5027855;28;20076;-78
2021/09/11 09:15:50;;;;;;;44.40;22.98;;;;;;;;;;5028999;28;20676;-78
2021/09/11 09:18:17;;;;;;;48.63;23.70;;;;;;;;;;5027583;28;20184;-78
2021/09/11 09:20:45;;;;;;;48.55;22.90;;;;;;;;;;5028398;28;20144;-78
2021/09/11 09:23:17;;;;;;;49.40;23.30;;;;;;;;;;5026981;28;20752;-78
2021/09/11 09:25:45;;;;;;;44.78;22.15;;;;;;;;;;5045143;28;20061;-78
2021/09/11 09:28:13;;;;;;;43.63;21.50;;;;;;;;;;5048741;28;20166;-78
2021/09/11 09:30:48;;;;;;;46.13;21.58;;;;;;;;;;5047563;28;20179;-78
2021/09/11 09:33:20;;;;;;;39.55;20.25;;;;;;;;;;5046709;28;20088;-78
2021/09/11 09:35:49;;;;;;;38.58;20.52;;;;;;;;;;5008020;28;20137;-78
2021/09/11 09:38:16;;;;;;;34.88;17.92;;;;;;;;;;5009156;28;20053;-78
2021/09/11 09:40:45;;;;;;;35.58;19.33;;;;;;;;;;5009260;28;20061;-78
2021/09/11 09:43:28;;;;;;;44.65;20.75;;;;;;;;;;5008288;28;20077;-78
2021/09/11 09:46:09;;;;;;;54.13;23.70;;;;;;;;;;5008685;28;20060;-78
2021/09/11 09:48:37;;;;;;;57.88;24.38;;;;;;;;;;5023099;28;20114;-78
2021/09/11 09:51:06;;;;;;;51.33;25.73;;;;;;;;;;5040122;28;20448;-78
2021/09/11 09:53:33;;;;;;;56.55;26.20;;;;;;;;;;5043789;28;20120;-78
2021/09/11 09:56:00;;;;;;;47.45;24.92;;;;;;;;;;5027278;28;20053;-79
2021/09/11 09:58:27;;;;;;;42.90;23.90;;;;;;;;;;5029108;28;20049;-80
2021/09/11 10:00:55;;;;;;;54.35;25.38;;;;;;;;;;5035113;28;20577;-79
2021/09/11 10:03:22;;;;;;;48.10;23.83;;;;;;;;;;5029716;28;20059;-79
2021/09/11 10:05:51;;;;;;;53.67;23.80;;;;;;;;;;5026643;28;20058;-79
2021/09/11 10:08:19;;;;;;;47.30;23.90;;;;;;;;;;5010378;28;20827;-79
2021/09/11 10:10:47;;;;;;;51.72;24.55;;;;;;;;;;5008001;28;20061;-79
2021/09/11 10:13:23;;;;;;;46.22;23.20;;;;;;;;;;5017702;28;20088;-79
2021/09/11 10:15:54;;;;;;;43.67;23.50;;;;;;;;;;5023681;28;20077;-79
2021/09/11 10:18:32;;;;;;;48.50;24.10;;;;;;;;;;5020084;28;20409;-78
2021/09/11 10:21:12;;;;;;;47.25;23.08;;;;;;;;;;5024143;28;20123;-79
2021/09/11 10:24:03;;;;;;;42.28;22.10;;;;;;;;;;5007276;28;20081;-78
2021/09/11 10:26:46;;;;;;;45.65;22.77;;;;;;;;;;5003094;28;20057;-78
2021/09/11 10:29:32;;;;;;;41.38;20.90;;;;;;;;;;5026443;28;20072;-78
2021/09/11 10:32:00;;;;;;;41.20;21.58;;;;;;;;;;5027914;28;20085;-78
2021/09/11 10:35:02;;;;;;;37.45;19.40;;;;;;;;;;5025212;28;20057;-79
2021/09/11 10:37:48;;;;;;;37.70;20.20;;;;;;;;;;5030347;28;20500;-78
2021/09/11 10:40:22;;;;;;;36.72;18.38;;;;;;;;;;5006927;28;20537;-78
2021/09/11 10:43:04;;;;;;;34.28;18.25;;;;;;;;;;5007507;28;20058;-79
2021/09/11 10:45:43;;;;;;;30.40;16.60;;;;;;;;;;5022483;28;20093;-78
2021/09/11 10:48:30;;;;;;;31.08;16.88;;;;;;;;;;5027857;28;20057;-79
2021/09/11 10:51:10;;;;;;;21.95;12.95;;;;;;;;;;5027853;28;20053;-78
2021/09/11 10:53:38;;;;;;;23.60;13.23;;;;;;;;;;5025910;28;20056;-79
2021/09/11 10:56:25;;;;;;;25.40;13.45;;;;;;;;;;5014327;28;20103;-79
2021/09/11 10:59:13;;;;;;;22.35;13.35;;;;;;;;;;5026690;28;20157;-78
2021/09/11 11:01:58;;;;;;;29.58;15.55;;;;;;;;;;5027457;28;20704;-79
2021/09/11 11:04:33;;;;;;;28.83;15.02;;;;;;;;;;5021604;28;20046;-79
2021/09/11 11:07:02;;;;;;;25.23;15.13;;;;;;;;;;5011509;28;20056;-78
2021/09/11 11:09:33;;;;;;;29.98;15.77;;;;;;;;;;5027355;28;20375;-78
2021/09/11 11:12:00;;;;;;;31.50;16.40;;;;;;;;;;5027954;28;20119;-79
2021/09/11 11:14:30;;;;;;;31.42;15.43;;;;;;;;;;5022324;28;20053;-79
2021/09/11 11:16:57;;;;;;;31.63;15.50;;;;;;;;;;5007334;28;20134;-79
2021/09/11 11:19:28;;;;;;;32.05;16.45;;;;;;;;;;5028807;28;20156;-79
2021/09/11 11:21:57;;;;;;;25.75;14.38;;;;;;;;;;5028384;28;20768;-81
2021/09/11 11:24:24;;;;;;;27.02;14.70;;;;;;;;;;5028851;28;20140;-79
2021/09/11 11:26:52;;;;;;;26.30;14.07;;;;;;;;;;5027475;28;20049;-78
2021/09/11 11:29:22;;;;;;;31.60;14.73;;;;;;;;;;5028016;28;20084;-79
2021/09/11 11:31:52;;;;;;;32.03;14.48;;;;;;;;;;5027268;28;20147;-79
2021/09/11 11:34:21;;;;;;;24.20;14.27;;;;;;;;;;5025031;28;20451;-79
2021/09/11 11:36:48;;;;;;;26.55;14.15;;;;;;;;;;5026840;28;20049;-79
2021/09/11 11:39:19;;;;;;;23.85;13.48;;;;;;;;;;5026069;28;20764;-79
2021/09/11 11:41:53;;;;;;;24.15;14.32;;;;;;;;;;5026656;28;20794;-81
2021/09/11 11:44:21;;;;;;;28.27;15.35;;;;;;;;;;5031188;28;20120;-80
2021/09/11 11:46:51;;;;;;;28.25;15.38;;;;;;;;;;5033181;28;20074;-81
2021/09/11 11:49:19;;;;;;;28.65;15.27;;;;;;;;;;5042882;28;20045;-81
2021/09/11 11:51:55;;;;;;;32.63;15.88;;;;;;;;;;5047849;28;20091;-81
2021/09/11 11:54:26;;;;;;;32.88;16.90;;;;;;;;;;5036111;28;20145;-82
2021/09/11 11:56:53;;;;;;;36.05;16.58;;;;;;;;;;5033667;28;20102;-82
2021/09/11 11:59:23;;;;;;;27.42;15.45;;;;;;;;;;5034889;28;20140;-82
2021/09/11 12:01:50;;;;;;;30.00;16.27;;;;;;;;;;5035386;28;20053;-82
2021/09/11 12:04:20;;;;;;;32.15;16.65;;;;;;;;;;5033443;28;20134;-82
2021/09/11 12:06:52;;;;;;;33.05;16.75;;;;;;;;;;5033449;28;20080;-82
2021/09/11 12:09:19;;;;;;;32.05;16.80;;;;;;;;;;5034423;28;20132;-82
2021/09/11 12:11:50;;;;;;;28.00;15.30;;;;;;;;;;5034109;28;20054;-82
2021/09/11 12:14:17;;;;;;;24.98;14.77;;;;;;;;;;5032592;28;20124;-82
2021/09/11 12:16:44;;;;;;;24.77;14.77;;;;;;;;;;5033020;28;20092;-83
2021/09/11 12:19:20;;;;;;;31.65;15.82;;;;;;;;;;5033183;28;20046;-83
2021/09/11 12:21:49;;;;;;;24.50;14.40;;;;;;;;;;5032774;28;20073;-83
2021/09/11 12:24:24;;;;;;;23.60;13.85;;;;;;;;;;5031007;28;20068;-82
2021/09/11 12:26:51;;;;;;;26.60;14.48;;;;;;;;;;5032975;28;20131;-82
2021/09/11 12:29:18;;;;;;;21.40;13.07;;;;;;;;;;5026477;28;20490;-81
2021/09/11 12:31:52;;;;;;;26.60;13.50;;;;;;;;;;5049219;28;20141;-84
2021/09/11 12:34:20;;;;;;;24.70;13.75;;;;;;;;;;5033988;28;20045;-83
2021/09/11 12:36:47;;;;;;;27.40;14.45;;;;;;;;;;5033234;28;20045;-83
2021/09/11 12:39:39;;;;;;;22.17;12.52;;;;;;;;;;5033972;28;20128;-83
2021/09/11 12:42:11;;;;;;;21.33;13.25;;;;;;;;;;5034194;28;20072;-84
2021/09/11 12:44:44;;;;;;;20.92;12.65;;;;;;;;;;5034224;28;20129;-84
2021/09/11 12:47:12;;;;;;;19.45;12.50;;;;;;;;;;5033020;28;20128;-84
2021/09/11 12:49:40;;;;;;;22.58;12.82;;;;;;;;;;5033794;28;20085;-84
2021/09/11 12:52:08;;;;;;;19.05;12.57;;;;;;;;;;5032308;28;20144;-84
2021/09/11 12:54:36;;;;;;;20.92;12.88;;;;;;;;;;5032840;28;20049;-84
2021/09/11 12:57:04;;;;;;;20.80;12.23;;;;;;;;;;5032116;28;20061;-85
2021/09/11 12:59:31;;;;;;;16.98;12.10;;;;;;;;;;5032949;28;20050;-84
2021/09/11 13:02:03;;;;;;;20.55;12.43;;;;;;;;;;5032544;28;20517;-85
2021/09/11 13:04:30;;;;;;;21.20;11.75;;;;;;;;;;5032830;28;20045;-85
2021/09/11 13:07:00;;;;;;;17.20;11.13;;;;;;;;;;5033500;28;20073;-84
2021/09/11 13:09:27;;;;;;;17.73;10.63;;;;;;;;;;5034466;28;20041;-82
2021/09/11 13:11:54;;;;;;;20.27;11.82;;;;;;;;;;5032612;28;20077;-83
2021/09/11 13:14:21;;;;;;;15.25;10.43;;;;;;;;;;5032292;28;20132;-82
2021/09/11 13:16:49;;;;;;;32.00;11.32;;;;;;;;;;5033286;28;20100;-82
2021/09/11 13:19:16;;;;;;;17.30;11.20;;;;;;;;;;5033343;28;20556;-81
2021/09/11 13:21:43;;;;;;;16.13;10.77;;;;;;;;;;5032177;28;20103;-81
2021/09/11 13:24:11;;;;;;;15.68;9.90;;;;;;;;;;5033687;28;20073;-81
2021/09/11 13:26:40;;;;;;;17.33;10.18;;;;;;;;;;5032105;28;20089;-78
2021/09/11 13:29:07;;;;;;;19.83;10.10;;;;;;;;;;5031754;28;20080;-80
2021/09/11 13:31:38;;;;;;;15.93;9.38;;;;;;;;;;5033224;28;20132;-80
2021/09/11 13:34:10;;;;;;;17.40;10.13;;;;;;;;;;5032825;28;20046;-80
2021/09/11 13:36:39;;;;;;;14.77;9.77;;;;;;;;;;5031398;28;20075;-80
2021/09/11 13:39:07;;;;;;;14.57;9.85;;;;;;;;;;5032835;28;20077;-80
2021/09/11 13:41:38;;;;;;;17.48;9.75;;;;;;;;;;5031408;28;20050;-80
2021/09/11 13:44:05;;;;;;;12.90;9.13;;;;;;;;;;5032733;28;20088;-79
2021/09/11 13:46:34;;;;;;;15.90;10.10;;;;;;;;;;5032498;28;20141;-79
2021/09/11 13:49:01;;;;;;;12.98;9.15;;;;;;;;;;5031749;28;20136;-79
2021/09/11 13:51:28;;;;;;;14.35;9.02;;;;;;;;;;5031048;28;20136;-79
2021/09/11 13:54:00;;;;;;;17.77;9.48;;;;;;;;;;5029034;28;20441;-79
2021/09/11 13:56:28;;;;;;;11.98;8.90;;;;;;;;;;5030755;28;20509;-79
2021/09/11 13:58:55;;;;;;;16.90;9.90;;;;;;;;;;5025433;28;20160;-78
2021/09/11 14:01:22;;;;;;;19.58;10.88;;;;;;;;;;5018968;28;20132;-79
2021/09/11 14:03:49;;;;;;;16.55;10.38;;;;;;;;;;5024529;28;20498;-81
2021/09/11 14:06:18;;;;;;;16.02;10.63;;;;;;;;;;5016724;28;20053;-80
2021/09/11 14:08:45;;;;;;;14.55;9.40;;;;;;;;;;5019265;28;20132;-78
2021/09/11 14:11:12;;;;;;;14.20;10.18;;;;;;;;;;5019430;28;20524;-77
2021/09/11 14:13:39;;;;;;;13.35;10.20;;;;;;;;;;5019271;28;20123;-76
2021/09/11 14:16:06;;;;;;;16.70;10.52;;;;;;;;;;5019679;28;20084;-78
2021/09/11 14:18:34;;;;;;;18.23;11.05;;;;;;;;;;5026629;28;20107;-77
2021/09/11 14:21:01;;;;;;;12.80;9.70;;;;;;;;;;5029862;28;20076;-79
2021/09/11 14:23:29;;;;;;;15.18;10.00;;;;;;;;;;5030083;28;20984;-79
2021/09/11 14:26:00;;;;;;;33.15;14.68;;;;;;;;;;5031490;28;20088;-80
2021/09/11 14:28:28;;;;;;;50.47;17.85;;;;;;;;;;5025450;28;20056;-78